createdAt,value
2023-04-28T00:02:24.657Z,98467.75
2023-04-28T00:04:56.598Z,98456.44
2023-04-28T00:07:28.324Z,98455.63
2023-04-28T00:09:59.847Z,98448.67
2023-04-28T00:12:32.846Z,98446.91
2023-04-28T00:15:04.396Z,98457.39
2023-04-28T00:17:35.934Z,98450.48
2023-04-28T00:20:08.679Z,98447.92
2023-04-28T00:22:40.377Z,98461.95
2023-04-28T00:25:11.844Z,98452.38
2023-04-28T00:27:43.270Z,98456.77
2023-04-28T00:30:15.130Z,98461.16
2023-04-28T00:32:46.640Z,98456.84
2023-04-28T00:35:18.193Z,98459.45
2023-04-28T00:37:49.613Z,98459.48
2023-04-28T00:40:21.674Z,98457.75
2023-04-28T00:42:54.219Z,98455.13
2023-04-28T00:45:25.967Z,98459.55
2023-04-28T00:47:58.272Z,98451.72
2023-04-28T00:50:29.846Z,98448.24
2023-04-28T00:53:01.688Z,98441.27
2023-04-28T00:55:37.105Z,98447.36
2023-04-28T00:58:08.743Z,98438.58
2023-04-28T01:00:40.882Z,98438.58
2023-04-28T01:03:12.576Z,98446.51
2023-04-28T01:05:44.338Z,98437.82
2023-04-28T01:08:19.106Z,98437.87
2023-04-28T01:10:50.915Z,98442.33
2023-04-28T01:13:24.168Z,98438.83
2023-04-28T01:15:56.450Z,98444.07
2023-04-28T01:18:28.131Z,98434.44
2023-04-28T01:20:59.608Z,98440.59
2023-04-28T01:23:31.838Z,98443.22
2023-04-28T01:26:03.481Z,98430.99
2023-04-28T01:28:35.104Z,98435.48
2023-04-28T01:31:06.600Z,98433.83
2023-04-28T01:33:38.300Z,98434.89
2023-04-28T01:36:10.702Z,98426.23
2023-04-28T01:38:42.070Z,98429.70
2023-04-28T01:41:16.461Z,98435.86
2023-04-28T01:43:47.934Z,98439.45
2023-04-28T01:46:19.359Z,98428.20
2023-04-28T01:48:50.767Z,98437.93
2023-04-28T01:51:22.722Z,98440.64
2023-04-28T01:53:54.597Z,98445.94
2023-04-28T01:56:26.175Z,98442.48
2023-04-28T01:58:59.133Z,98445.11
2023-04-28T02:01:30.796Z,98445.11
2023-04-28T02:04:02.532Z,98444.33
2023-04-28T02:06:35.522Z,98445.22
2023-04-28T02:09:06.902Z,98443.52
2023-04-28T02:11:38.223Z,98451.33
2023-04-28T02:14:09.703Z,98447.84
2023-04-28T02:16:43.078Z,98437.34
2023-04-28T02:19:16.689Z,98433.83
2023-04-28T02:21:48.025Z,98426.88
2023-04-28T02:24:19.370Z,98431.28
2023-04-28T02:26:51.324Z,98440.09
2023-04-28T02:29:22.709Z,98431.37
2023-04-28T02:31:54.552Z,98433.11
2023-04-28T02:34:27.158Z,98437.52
2023-04-28T02:36:58.613Z,98429.66
2023-04-28T02:39:33.056Z,98436.61
2023-04-28T02:42:05.848Z,98438.39
2023-04-28T02:44:37.373Z,98438.39
2023-04-28T02:47:09.836Z,98431.37
2023-04-28T02:49:41.309Z,98429.55
2023-04-28T02:52:15.677Z,98431.26
2023-04-28T02:54:49.248Z,98438.23
2023-04-28T02:57:21.722Z,98438.19
2023-04-28T02:59:53.235Z,98439.84
2023-04-28T03:02:26.676Z,98443.27
2023-04-28T03:04:58.300Z,98447.55
2023-04-28T03:07:30.887Z,98444.77
2023-04-28T03:10:02.442Z,98455.11
2023-04-28T03:12:34.516Z,98450.66
2023-04-28T03:15:08.632Z,98453.20
2023-04-28T03:17:43.964Z,98454.88
2023-04-28T03:20:16.018Z,98453.05
2023-04-28T03:22:48.272Z,98462.59
2023-04-28T03:25:20.030Z,98463.39
2023-04-28T03:27:53.543Z,98461.56
2023-04-28T03:30:26.025Z,98460.63
2023-04-28T03:32:57.698Z,98463.19
2023-04-28T03:35:29.418Z,98454.37
2023-04-28T03:38:02.576Z,98460.44
2023-04-28T03:40:34.358Z,98462.97
2023-04-28T03:43:23.711Z,98468.14
2023-04-28T03:46:11.748Z,98469.79
2023-04-28T03:48:43.914Z,98461.78
2023-04-28T03:51:15.837Z,98463.42
2023-04-28T03:53:47.525Z,98465.09
2023-04-28T03:56:19.246Z,98460.73
2023-04-28T03:58:50.792Z,98476.41
2023-04-28T04:01:24.691Z,98485.13
2023-04-28T04:03:57.843Z,98471.13
2023-04-28T04:06:30.008Z,98473.61
2023-04-28T04:09:09.514Z,98479.43
2023-04-28T04:11:44.267Z,98485.20
2023-04-28T04:14:16.826Z,98486.72
2023-04-28T04:16:53.469Z,98479.42
2023-04-28T04:19:30.809Z,98492.23
2023-04-28T04:22:03.424Z,98473.67
2023-04-28T04:24:35.508Z,98490.17
2023-04-28T04:27:07.640Z,98487.30
2023-04-28T04:29:40.802Z,98487.92
2023-04-28T04:32:17.498Z,98491.09
2023-04-28T04:34:50.970Z,98484.72
2023-04-28T04:37:30.375Z,98477.39
2023-04-28T04:40:36.354Z,98481.39
2023-04-28T04:42:56.869Z,98478.52
2023-04-28T04:45:34.159Z,98491.48
2023-04-28T04:48:06.154Z,98489.89
2023-04-28T04:50:39.463Z,98500.18
2023-04-28T04:53:14.592Z,98491.03
2023-04-28T04:55:44.333Z,98500.67
2023-04-28T04:58:16.100Z,98497.05
2023-04-28T05:01:08.892Z,98504.54
2023-04-28T05:03:45.532Z,98490.23
2023-04-28T05:06:19.416Z,98500.60
2023-04-28T05:08:53.885Z,98495.50
2023-04-28T05:11:26.222Z,98515.34
2023-04-28T05:13:57.867Z,98517.56
2023-04-28T05:16:30.771Z,98512.77
2023-04-28T05:19:14.994Z,98508.69
2023-04-28T05:21:50.283Z,98528.93
2023-04-28T05:24:23.673Z,98525.23
2023-04-28T05:26:55.533Z,98515.83
2023-04-28T05:29:29.545Z,98524.67
2023-04-28T05:32:01.108Z,98525.08
2023-04-28T05:34:32.927Z,98530.09
2023-04-28T05:37:09.515Z,98531.83
2023-04-28T05:39:42.848Z,98549.70
2023-04-28T05:42:15.914Z,98554.28
2023-04-28T05:44:50.174Z,98558.70
2023-04-28T05:47:22.142Z,98579.73
2023-04-28T05:49:54.833Z,98574.45
2023-04-28T05:52:26.848Z,98558.55
2023-04-28T05:54:58.861Z,98569.42
2023-04-28T05:57:49.353Z,98562.98
2023-04-28T06:00:12.317Z,98564.89
2023-04-28T06:02:43.683Z,98561.58
2023-04-28T06:05:18.214Z,98552.04
2023-04-28T06:07:51.572Z,98549.38
2023-04-28T06:10:27.918Z,98550.22
2023-04-28T06:13:02.786Z,98549.38
2023-04-28T06:15:36.829Z,98541.31
2023-04-28T06:18:09.946Z,98551.67
2023-04-28T06:20:41.709Z,98554.28
2023-04-28T06:23:13.808Z,98551.70
2023-04-28T06:25:47.151Z,98556.06
2023-04-28T06:28:19.338Z,98555.86
2023-04-28T06:30:51.271Z,98560.81
2023-04-28T06:33:22.729Z,98559.48
2023-04-28T06:35:54.533Z,98554.79
2023-04-28T06:38:26.288Z,98551.83
2023-04-28T06:40:58.149Z,98549.61
2023-04-28T06:43:30.205Z,98544.48
2023-04-28T06:46:03.551Z,98536.41
2023-04-28T06:48:35.500Z,98532.30
2023-04-28T06:51:08.746Z,98519.64
2023-04-28T06:53:40.946Z,98526.02
2023-04-28T06:56:14.053Z,98513.55
2023-04-28T06:58:55.210Z,98524.27
2023-04-28T07:01:27.396Z,98538.84
2023-04-28T07:04:03.154Z,98531.34
2023-04-28T07:06:37.470Z,98534.58
2023-04-28T07:09:09.222Z,98543.63
2023-04-28T07:11:52.016Z,98557.89
2023-04-28T07:15:12.894Z,98547.59
2023-04-28T07:17:36.566Z,98542.49
2023-04-28T07:20:12.688Z,98525.59
2023-04-28T07:22:45.412Z,98533.10
2023-04-28T07:25:17.609Z,98531.56
2023-04-28T07:27:50.601Z,98522.36
2023-04-28T07:30:28.323Z,98531.22
2023-04-28T07:33:21.335Z,98529.06
2023-04-28T07:35:55.370Z,98526.28
2023-04-28T07:38:37.856Z,98534.80
2023-04-28T07:41:11.617Z,98535.75
2023-04-28T07:43:44.427Z,98529.57
2023-04-28T07:46:16.357Z,98535.36
2023-04-28T07:48:48.242Z,98525.28
2023-04-28T07:51:19.864Z,98530.13
2023-04-28T07:53:52.809Z,98529.61
2023-04-28T07:56:24.588Z,98531.02
2023-04-28T07:58:56.354Z,98538.13
2023-04-28T08:01:29.339Z,98542.73
2023-04-28T08:04:01.415Z,98536.14
2023-04-28T08:06:37.776Z,98540.92
2023-04-28T08:09:10.840Z,98547.25
2023-04-28T08:11:42.996Z,98546.20
2023-04-28T08:14:18.415Z,98530.83
2023-04-28T08:16:50.719Z,98541.98
2023-04-28T08:19:22.661Z,98537.07
2023-04-28T08:21:55.515Z,98537.00
2023-04-28T08:24:29.361Z,98538.48
2023-04-28T08:27:03.545Z,98542.06
2023-04-28T08:29:36.137Z,98540.61
2023-04-28T08:32:09.364Z,98542.36
2023-04-28T08:34:41.015Z,98540.68
2023-04-28T08:37:14.077Z,98534.89
2023-04-28T08:39:45.694Z,98531.75
2023-04-28T08:42:19.510Z,98538.72
2023-04-28T08:44:52.729Z,98537.45
2023-04-28T08:47:24.703Z,98535.89
2023-04-28T08:49:58.210Z,98541.59
2023-04-28T08:52:31.348Z,98555.38
2023-04-28T08:55:04.752Z,98544.39
2023-04-28T08:57:38.673Z,98536.18
2023-04-28T09:00:11.767Z,98529.64
2023-04-28T09:02:43.710Z,98545.66
2023-04-28T09:05:15.982Z,98548.30
2023-04-28T09:07:48.835Z,98549.36
2023-04-28T09:10:21.902Z,98548.46
2023-04-28T09:12:55.225Z,98556.45
2023-04-28T09:15:33.297Z,98556.31
2023-04-28T09:18:05.063Z,98556.89
2023-04-28T09:20:37.846Z,98554.93
2023-04-28T09:23:16.273Z,98556.35
2023-04-28T09:26:15.861Z,98557.98
2023-04-28T09:28:47.801Z,98555.87
2023-04-28T09:31:25.991Z,98557.70
2023-04-28T09:34:01.006Z,98553.34
2023-04-28T09:36:32.936Z,98559.35
2023-04-28T09:39:04.692Z,98552.14
2023-04-28T09:41:40.700Z,98552.44
2023-04-28T09:44:14.837Z,98552.53
2023-04-28T09:46:47.528Z,98559.13
2023-04-28T09:49:19.167Z,98545.42
2023-04-28T09:51:51.238Z,98537.31
2023-04-28T09:54:27.238Z,98536.67
2023-04-28T09:56:58.819Z,98529.48
2023-04-28T09:59:30.626Z,98542.38
2023-04-28T10:02:12.904Z,98559.38
2023-04-28T10:04:37.279Z,98560.46
2023-04-28T10:07:10.674Z,98560.77
2023-04-28T10:09:44.427Z,98559.70
2023-04-28T10:12:16.327Z,98578.78
2023-04-28T10:14:49.911Z,98561.98
2023-04-28T10:17:21.919Z,98559.48
2023-04-28T10:19:55.129Z,98552.88
2023-04-28T10:22:29.817Z,98553.17
2023-04-28T10:25:06.481Z,98553.87
2023-04-28T10:27:38.584Z,98561.33
2023-04-28T10:30:26.508Z,98549.58
2023-04-28T10:32:48.578Z,98551.33
2023-04-28T10:35:38.482Z,98550.80
2023-04-28T10:38:11.002Z,98566.78
2023-04-28T10:40:43.495Z,98572.77
2023-04-28T10:43:15.710Z,98607.04
2023-04-28T10:46:05.113Z,98587.48
2023-04-28T10:48:56.497Z,98605.95
2023-04-28T10:51:51.984Z,98587.67
2023-04-28T10:54:23.898Z,98588.23
2023-04-28T10:57:12.824Z,98600.55
2023-04-28T10:59:44.641Z,98602.59
2023-04-28T11:02:36.845Z,98605.40
2023-04-28T11:05:22.514Z,98595.89
2023-04-28T11:08:13.306Z,98601.25
2023-04-28T11:11:14.809Z,98597.94
2023-04-28T11:13:51.040Z,98597.91
2023-04-28T11:16:23.755Z,98601.78
2023-04-28T11:18:59.978Z,98600.44
2023-04-28T11:21:33.893Z,98605.55
2023-04-28T11:24:12.255Z,98602.18
2023-04-28T11:26:46.964Z,98595.18
2023-04-28T11:29:19.128Z,98605.50
2023-04-28T11:31:53.972Z,98599.31
2023-04-28T11:34:47.429Z,98598.50
2023-04-28T11:37:24.273Z,98597.50
2023-04-28T11:39:59.068Z,98589.36
2023-04-28T11:42:32.090Z,98595.05
2023-04-28T11:45:22.761Z,98597.55
2023-04-28T11:47:56.100Z,98601.45
2023-04-28T11:50:38.026Z,98589.84
2023-04-28T11:53:09.736Z,98599.17
2023-04-28T11:55:41.520Z,98595.41
2023-04-28T11:58:24.186Z,98593.44
2023-04-28T12:01:12.338Z,98592.92
2023-04-28T12:03:47.656Z,98592.57
2023-04-28T12:06:21.260Z,98590.34
2023-04-28T12:08:54.810Z,98580.88
2023-04-28T12:11:26.539Z,98586.36
2023-04-28T12:14:11.023Z,98572.82
2023-04-28T12:16:48.195Z,98588.64
2023-04-28T12:19:21.192Z,98586.95
2023-04-28T12:22:03.327Z,98583.66
2023-04-28T12:24:37.374Z,98588.03
2023-04-28T12:27:20.781Z,98585.44
2023-04-28T12:29:52.909Z,98585.71
2023-04-28T12:32:40.197Z,98590.23
2023-04-28T12:35:11.929Z,98584.09
2023-04-28T12:37:44.473Z,98591.27
2023-04-28T12:40:17.736Z,98596.59
2023-04-28T12:42:50.262Z,98598.48
2023-04-28T12:45:22.017Z,98590.70
2023-04-28T12:47:53.641Z,98588.97
2023-04-28T12:50:25.992Z,98594.33
2023-04-28T12:52:57.948Z,98604.90
2023-04-28T12:55:30.475Z,98600.60
2023-04-28T12:58:03.178Z,98596.44
2023-04-28T13:00:34.862Z,98596.67
2023-04-28T13:03:07.307Z,98613.34
2023-04-28T13:05:39.999Z,98605.59
2023-04-28T13:08:12.961Z,98602.20
2023-04-28T13:10:45.946Z,98599.64
2023-04-28T13:13:17.885Z,98607.54
2023-04-28T13:15:49.639Z,98601.41
2023-04-28T13:18:23.290Z,98614.67
2023-04-28T13:20:56.838Z,98606.92
2023-04-28T13:23:28.470Z,98615.84
2023-04-28T13:26:00.171Z,98599.41
2023-04-28T13:28:31.806Z,98609.84
2023-04-28T13:31:04.650Z,98614.08
2023-04-28T13:33:36.693Z,98612.36
2023-04-28T13:36:10.230Z,98628.31
2023-04-28T13:38:45.753Z,98592.14
2023-04-28T13:41:19.602Z,98631.38
2023-04-28T13:43:53.493Z,98635.08
2023-04-28T13:53:35.362Z,98657.31
2023-04-28T13:56:13.209Z,98645.21
2023-04-28T13:58:45.385Z,98648.75
2023-04-28T14:01:22.552Z,98640.09
2023-04-28T14:04:22.304Z,98652.33
2023-04-28T14:07:17.270Z,98653.21
2023-04-28T14:10:00.743Z,98651.48
2023-04-28T14:12:36.033Z,98655.89
2023-04-28T14:15:21.362Z,98664.67
2023-04-28T14:18:23.515Z,98666.40
2023-04-28T14:28:31.491Z,98672.66
2023-04-28T14:31:19.909Z,98675.36
2023-04-28T14:33:57.989Z,98671.03
2023-04-28T14:36:35.936Z,98672.83
2023-04-28T14:39:11.773Z,98675.46
2023-04-28T14:41:43.446Z,98678.91
2023-04-28T14:44:15.396Z,98684.09
2023-04-28T14:46:47.357Z,98677.11
2023-04-28T14:49:19.643Z,98684.15
2023-04-28T14:51:51.958Z,98678.07
2023-04-28T14:54:24.126Z,98678.97
2023-04-28T14:57:01.814Z,98688.56
2023-04-28T14:59:33.670Z,98680.70
2023-04-28T15:02:07.762Z,98680.72
2023-04-28T15:04:46.738Z,98684.20
2023-04-28T15:07:22.062Z,98699.03
2023-04-28T15:09:56.009Z,98676.45
2023-04-28T15:12:29.795Z,98701.76
2023-04-28T15:15:01.847Z,98702.63
2023-04-28T15:17:34.684Z,98702.64
2023-04-28T15:20:07.610Z,98697.35
2023-04-28T15:22:41.572Z,98697.31
2023-04-28T15:25:15.740Z,98701.61
2023-04-28T15:27:49.286Z,98697.27
2023-04-28T15:30:21.395Z,98708.59
2023-04-28T15:32:53.966Z,98712.09
2023-04-28T15:35:26.071Z,98714.70
2023-04-28T15:37:58.311Z,98716.41
2023-04-28T15:40:31.354Z,98720.76
2023-04-28T15:43:08.619Z,98719.86
2023-04-28T15:45:40.868Z,98721.61
2023-04-28T15:48:13.081Z,98720.73
2023-04-28T15:50:49.323Z,98730.34
2023-04-28T15:53:22.642Z,98730.36
2023-04-28T15:55:54.614Z,98729.50
2023-04-28T15:58:26.521Z,98748.67
2023-04-28T16:01:02.489Z,98738.23
2023-04-28T16:03:37.369Z,98737.42
2023-04-28T16:06:11.074Z,98726.16
2023-04-28T16:08:45.937Z,98718.34
2023-04-28T16:11:33.822Z,98723.58
2023-04-28T16:14:18.889Z,98726.13
2023-04-28T16:17:03.394Z,98725.28
2023-04-28T16:19:57.009Z,98734.02
2023-04-28T16:22:33.047Z,98722.67
2023-04-28T16:25:13.420Z,98720.08
2023-04-28T16:27:52.868Z,98722.72
2023-04-28T16:30:29.381Z,98724.44
2023-04-28T16:33:05.254Z,98722.70
2023-04-28T16:35:39.527Z,98739.22
2023-04-28T16:38:15.828Z,98747.88
2023-04-28T16:40:49.219Z,98754.84
2023-04-28T16:43:24.452Z,98747.00
2023-04-28T16:45:58.908Z,98744.37
2023-04-28T16:48:33.168Z,98734.80
2023-04-28T16:51:07.632Z,98743.45
2023-04-28T16:53:42.036Z,98754.71
2023-04-28T16:56:14.392Z,98755.57
2023-04-28T16:58:50.803Z,98761.61
2023-04-28T17:01:27.004Z,98748.58
2023-04-28T17:04:03.256Z,98755.50
2023-04-28T17:06:35.483Z,98758.92
2023-04-28T17:09:11.749Z,98763.23
2023-04-28T17:11:46.249Z,98754.48
2023-04-28T17:14:23.760Z,98758.78
2023-04-28T17:16:57.244Z,98757.97
2023-04-28T17:19:30.498Z,98745.84
2023-04-28T17:22:05.163Z,98742.31
2023-04-28T17:24:37.342Z,98763.06
2023-04-28T17:27:13.811Z,98762.28
2023-04-28T17:29:49.648Z,98774.45
2023-04-28T17:32:22.098Z,98790.08
2023-04-28T17:34:56.686Z,98768.39
2023-04-28T17:37:31.775Z,98790.94
2023-04-28T17:40:12.834Z,98784.83
2023-04-28T17:42:47.881Z,98796.99
2023-04-28T17:45:26.696Z,98794.43
2023-04-28T17:48:02.673Z,98797.94
2023-04-28T17:50:37.407Z,98789.28
2023-04-28T17:53:09.685Z,98789.28
2023-04-28T17:55:44.104Z,98780.56
2023-04-28T17:58:19.294Z,98775.30
2023-04-28T18:00:51.230Z,98787.34
2023-04-28T18:03:26.387Z,98793.34
2023-04-28T18:09:04.133Z,98795.02
2023-04-28T18:11:44.362Z,98799.31
2023-04-28T18:14:20.556Z,98797.64
2023-04-28T18:16:52.528Z,98790.78
2023-04-28T18:19:26.297Z,98797.64
2023-04-28T18:22:00.529Z,98793.28
2023-04-28T18:24:33.932Z,98795.95
2023-04-28T18:27:07.151Z,98792.54
2023-04-28T18:29:38.991Z,98796.90
2023-04-28T18:32:14.277Z,98812.52
2023-04-28T18:34:50.228Z,98802.95
2023-04-28T18:37:38.853Z,98802.89
2023-04-28T18:40:21.540Z,98800.29
2023-04-28T18:42:59.441Z,98805.50
2023-04-28T18:45:34.786Z,98817.59
2023-04-28T18:48:27.348Z,98808.87
2023-04-28T18:51:03.468Z,98813.11
2023-04-28T18:53:48.111Z,98799.20
2023-04-28T19:00:09.339Z,98794.88
2023-04-28T19:02:41.316Z,98793.00
2023-04-28T19:05:28.073Z,98796.42
2023-04-28T19:08:01.496Z,98803.27
2023-04-28T19:10:34.606Z,98802.34
2023-04-28T19:13:08.917Z,98796.30
2023-04-28T19:15:46.456Z,98799.78
2023-04-28T19:18:18.521Z,98801.55
2023-04-28T19:20:52.853Z,98806.70
2023-04-28T19:23:27.561Z,98804.06
2023-04-28T19:26:03.252Z,98797.09
2023-04-28T19:28:36.239Z,98792.77
2023-04-28T19:31:09.640Z,98789.31
2023-04-28T19:36:50.257Z,98801.23
2023-04-28T19:39:26.872Z,98806.35
2023-04-28T19:42:02.807Z,98808.08
2023-04-28T19:44:36.443Z,98816.70
2023-04-28T19:47:15.030Z,98815.00
2023-04-28T19:49:55.534Z,98813.28
2023-04-28T19:52:35.099Z,98807.09
2023-04-28T19:55:21.771Z,98806.99
2023-04-28T19:57:56.298Z,98812.19
2023-04-28T20:00:32.679Z,98824.25
2023-04-28T20:03:10.367Z,98824.14
2023-04-28T20:05:43.680Z,98821.44
2023-04-28T20:08:43.800Z,98827.37
2023-04-28T20:11:17.521Z,98815.22
2023-04-28T20:13:52.982Z,98801.30
2023-04-28T20:16:26.141Z,98791.70
2023-04-28T20:18:57.574Z,98803.00
2023-04-28T20:21:29.638Z,98804.78
2023-04-28T20:24:04.544Z,98796.99
2023-04-28T20:26:37.436Z,98798.77
2023-04-28T20:29:10.801Z,98792.67
2023-04-28T20:31:45.195Z,98784.93
2023-04-28T20:34:35.213Z,98783.18
2023-04-28T20:37:11.187Z,98793.59
2023-04-28T20:39:42.772Z,98780.57
2023-04-28T20:42:14.237Z,98788.30
2023-04-28T20:44:47.096Z,98791.81
2023-04-28T20:47:18.918Z,98794.40
2023-04-28T20:49:50.437Z,98790.88
2023-04-28T20:52:25.233Z,98794.30
2023-04-28T20:54:59.230Z,98789.11
2023-04-28T20:57:30.781Z,98792.62
2023-04-28T21:00:04.642Z,98792.64
2023-04-28T21:02:38.685Z,98796.19
2023-04-28T21:05:13.082Z,98803.89
2023-04-28T21:07:45.397Z,98816.92
2023-04-28T21:10:16.818Z,98814.28
2023-04-28T21:12:58.267Z,98803.11
2023-04-28T21:15:29.566Z,98796.27
2023-04-28T21:18:01.138Z,98800.61
2023-04-28T21:20:32.560Z,98798.05
2023-04-28T21:23:07.546Z,98798.91
2023-04-28T21:25:39.280Z,98803.27
2023-04-28T21:28:11.885Z,98793.70
2023-04-28T21:30:43.657Z,98791.11
2023-04-28T21:33:15.067Z,98775.58
2023-04-28T21:35:46.407Z,98782.46
2023-04-28T21:38:17.837Z,98789.32
2023-04-28T21:40:50.043Z,98787.54
2023-04-28T21:43:22.601Z,98792.64
2023-04-28T21:45:54.136Z,98800.45
2023-04-28T21:48:25.709Z,98790.02
2023-04-28T21:50:57.484Z,98796.91
2023-04-28T21:53:29.631Z,98787.36
2023-04-28T21:56:01.125Z,98788.27
2023-04-28T21:58:32.752Z,98784.77
2023-04-28T22:01:04.712Z,98796.87
2023-04-28T22:03:36.845Z,98786.47
2023-04-28T22:06:08.487Z,98780.39
2023-04-28T22:08:40.097Z,98777.87
2023-04-28T22:11:11.633Z,98787.42
2023-04-28T22:13:43.194Z,98789.95
2023-04-28T22:16:14.697Z,98795.94
2023-04-28T22:18:46.340Z,98795.84
2023-04-28T22:21:23.700Z,98795.71
2023-04-28T22:24:18.189Z,98799.93
2023-04-28T22:26:48.827Z,98782.59
2023-04-28T22:29:20.964Z,98785.20
2023-04-28T22:31:52.604Z,98780.75
2023-04-28T22:34:24.186Z,98772.05
2023-04-28T22:36:56.021Z,98767.78
2023-04-28T22:39:27.579Z,98768.63
2023-04-28T22:41:59.850Z,98765.96
2023-04-28T22:44:31.475Z,98763.37
2023-04-28T22:47:03.569Z,98777.92
2023-04-28T22:49:35.118Z,98776.08
2023-04-28T22:52:06.896Z,98780.16
2023-04-28T22:54:41.905Z,98782.41
2023-04-28T22:57:13.566Z,98781.42
2023-04-28T22:59:45.851Z,98771.73
2023-04-28T23:02:17.691Z,98766.43
2023-04-28T23:04:49.263Z,98775.89
2023-04-28T23:07:20.914Z,98768.95
2023-04-28T23:09:52.755Z,98771.53
2023-04-28T23:12:24.595Z,98784.50
2023-04-28T23:14:56.684Z,98766.34
2023-04-28T23:17:28.209Z,98779.18
2023-04-28T23:19:59.956Z,98775.50
2023-04-28T23:22:33.053Z,98779.72
2023-04-28T23:25:04.753Z,98777.97
2023-04-28T23:27:36.218Z,98730.05
2023-04-28T23:30:11.833Z,98770.28
2023-04-28T23:32:43.833Z,98772.91
2023-04-28T23:35:15.468Z,98767.86
2023-04-28T23:37:47.541Z,98766.10
2023-04-28T23:40:19.297Z,98762.66
2023-04-28T23:42:50.842Z,98765.24
2023-04-28T23:45:22.771Z,98780.83
2023-04-28T23:47:54.525Z,98796.37
2023-04-28T23:50:26.219Z,98798.13
2023-04-28T23:52:57.852Z,98782.59
2023-04-28T23:55:29.408Z,98787.79
2023-04-28T23:58:00.854Z,98790.42
